createdAt,value
2023-02-06T00:02:17.379Z,33.70
2023-02-06T00:04:49.012Z,33.60
2023-02-06T00:07:20.416Z,31.90
2023-02-06T00:09:51.890Z,35.00
2023-02-06T00:12:23.401Z,31.80
2023-02-06T00:14:54.845Z,33.70
2023-02-06T00:17:26.239Z,32.80
2023-02-06T00:19:57.659Z,32.70
2023-02-06T00:22:29.164Z,33.60
2023-02-06T00:25:00.804Z,35.10
2023-02-06T00:27:32.911Z,35.90
2023-02-06T00:30:06.097Z,37.40
2023-02-06T00:32:38.214Z,34.80
2023-02-06T00:35:10.224Z,36.20
2023-02-06T00:37:41.826Z,33.00
2023-02-06T00:40:15.091Z,33.50
2023-02-06T00:42:46.546Z,30.30
2023-02-06T00:45:18.222Z,30.10
2023-02-06T00:47:49.633Z,29.80
2023-02-06T00:50:21.537Z,29.40
2023-02-06T00:52:53.021Z,28.10
2023-02-06T00:55:24.408Z,29.60
2023-02-06T00:57:55.837Z,29.90
2023-02-06T01:00:27.254Z,28.10
2023-02-06T01:02:58.856Z,29.50
2023-02-06T01:05:30.584Z,29.10
2023-02-06T01:08:04.352Z,29.00
2023-02-06T01:10:36.264Z,27.40
2023-02-06T01:13:07.665Z,28.00
2023-02-06T01:15:39.425Z,28.00
2023-02-06T01:18:12.095Z,28.30
2023-02-06T01:20:44.462Z,28.10
2023-02-06T01:23:16.130Z,27.50
2023-02-06T01:25:47.675Z,28.10
2023-02-06T01:28:19.370Z,28.40
2023-02-06T01:30:50.844Z,28.60
2023-02-06T01:33:22.282Z,28.60
2023-02-06T01:35:59.498Z,28.80
2023-02-06T01:38:31.001Z,27.90
2023-02-06T01:41:03.489Z,27.10
2023-02-06T01:43:37.125Z,28.80
2023-02-06T01:46:09.604Z,26.00
2023-02-06T01:48:43.938Z,27.00
2023-02-06T01:51:18.864Z,25.40
2023-02-06T01:53:55.166Z,26.30
2023-02-06T01:56:28.572Z,26.50
2023-02-06T01:59:03.497Z,26.80
2023-02-06T02:01:35.845Z,27.00
2023-02-06T02:04:10.297Z,26.00
2023-02-06T02:06:43.498Z,26.10
2023-02-06T02:09:15.408Z,26.30
2023-02-06T02:11:46.872Z,27.00
2023-02-06T02:14:20.310Z,27.50
2023-02-06T02:17:02.761Z,26.90
2023-02-06T02:20:13.166Z,27.50
2023-02-06T02:23:06.357Z,27.50
2023-02-06T02:26:00.340Z,27.10
2023-02-06T02:29:00.739Z,25.60
2023-02-06T02:32:08.051Z,28.40
2023-02-06T02:34:59.321Z,27.90
2023-02-06T02:37:41.193Z,26.60
2023-02-06T02:40:20.702Z,27.50
2023-02-06T02:43:01.761Z,26.10
2023-02-06T02:45:38.414Z,25.10
2023-02-06T02:48:15.921Z,27.60
2023-02-06T02:50:47.355Z,28.30
2023-02-06T02:53:19.391Z,30.70
2023-02-06T02:55:50.876Z,30.90
2023-02-06T02:58:28.768Z,30.50
2023-02-06T03:01:03.819Z,31.10
2023-02-06T03:03:36.525Z,31.70
2023-02-06T03:06:28.497Z,31.10
2023-02-06T03:09:10.307Z,30.70
2023-02-06T03:11:47.062Z,31.30
2023-02-06T03:14:24.782Z,30.10
2023-02-06T03:17:01.216Z,30.90
2023-02-06T03:19:37.021Z,31.40
2023-02-06T03:22:08.729Z,31.70
2023-02-06T03:24:41.849Z,31.60
2023-02-06T03:27:17.483Z,32.20
2023-02-06T03:29:51.932Z,33.10
2023-02-06T03:32:27.320Z,30.50
2023-02-06T03:35:03.118Z,31.80
2023-02-06T03:37:37.197Z,33.10
2023-02-06T03:40:11.768Z,31.80
2023-02-06T03:42:47.396Z,32.50
2023-02-06T03:45:25.885Z,33.20
2023-02-06T03:48:03.507Z,32.70
2023-02-06T03:50:38.217Z,30.80
2023-02-06T03:55:41.614Z,28.10
2023-02-06T03:58:16.151Z,29.60
2023-02-06T04:00:49.705Z,32.40
2023-02-06T04:03:23.130Z,31.80
2023-02-06T04:05:54.532Z,33.30
2023-02-06T04:08:26.084Z,33.60
2023-02-06T04:10:57.441Z,35.10
2023-02-06T04:13:28.870Z,35.20
2023-02-06T04:16:00.316Z,37.90
2023-02-06T04:18:31.851Z,36.10
2023-02-06T04:21:08.682Z,34.00
2023-02-06T04:23:40.060Z,36.50
2023-02-06T04:26:11.476Z,38.00
2023-02-06T04:28:42.911Z,38.10
2023-02-06T04:31:14.241Z,39.00
2023-02-06T04:33:45.961Z,39.40
2023-02-06T04:36:22.625Z,38.80
2023-02-06T04:38:59.528Z,37.20
2023-02-06T04:41:38.100Z,38.10
2023-02-06T04:44:09.728Z,37.30
2023-02-06T04:46:41.227Z,37.10
2023-02-06T04:49:13.061Z,36.40
2023-02-06T04:51:44.976Z,35.60
2023-02-06T04:54:18.154Z,38.00
2023-02-06T04:56:49.638Z,35.30
2023-02-06T04:59:21.292Z,36.90
2023-02-06T05:01:53.015Z,34.60
2023-02-06T05:04:24.458Z,35.80
2023-02-06T05:06:56.003Z,37.90
2023-02-06T05:09:27.431Z,40.10
2023-02-06T05:11:58.816Z,39.90
2023-02-06T05:14:30.464Z,41.10
2023-02-06T05:17:01.862Z,38.30
2023-02-06T05:19:33.488Z,36.50
2023-02-06T05:22:04.963Z,37.40
2023-02-06T05:24:36.471Z,38.20
2023-02-06T05:27:07.880Z,38.50
2023-02-06T05:29:39.431Z,38.80
2023-02-06T05:32:10.848Z,41.50
2023-02-06T05:34:42.396Z,43.60
2023-02-06T05:37:15.409Z,43.40
2023-02-06T05:39:46.926Z,43.70
2023-02-06T05:42:18.411Z,40.70
2023-02-06T05:44:49.820Z,44.40
2023-02-06T05:47:21.382Z,43.70
2023-02-06T05:49:53.187Z,51.20
2023-02-06T05:52:24.636Z,56.00
2023-02-06T05:54:56.144Z,59.80
2023-02-06T05:57:27.726Z,60.70
2023-02-06T05:59:59.178Z,68.70
2023-02-06T06:02:30.703Z,68.50
2023-02-06T06:05:02.267Z,67.30
2023-02-06T06:07:33.865Z,74.20
2023-02-06T06:10:07.075Z,69.00
2023-02-06T06:12:38.938Z,64.30
2023-02-06T06:15:12.153Z,61.60
2023-02-06T06:17:43.664Z,63.00
2023-02-06T06:20:15.793Z,56.10
2023-02-06T06:22:47.564Z,59.10
2023-02-06T06:25:19.231Z,63.00
2023-02-06T06:27:50.799Z,60.60
2023-02-06T06:30:22.610Z,67.30
2023-02-06T06:32:54.161Z,61.50
2023-02-06T06:35:27.497Z,64.70
2023-02-06T06:37:59.053Z,62.70
2023-02-06T06:40:30.647Z,66.90
2023-02-06T06:43:02.251Z,68.10
2023-02-06T06:45:35.078Z,66.60
2023-02-06T06:48:07.264Z,67.20
2023-02-06T06:50:38.759Z,69.10
2023-02-06T06:53:10.263Z,58.40
2023-02-06T06:55:41.732Z,56.70
2023-02-06T06:58:13.433Z,55.10
2023-02-06T07:00:45.266Z,53.20
2023-02-06T07:03:16.966Z,52.60
2023-02-06T07:05:48.713Z,52.60
2023-02-06T07:08:20.313Z,52.20
2023-02-06T07:10:51.899Z,54.40
2023-02-06T07:13:23.440Z,57.60
2023-02-06T07:15:55.062Z,54.20
2023-02-06T07:18:28.462Z,60.70
2023-02-06T07:21:00.131Z,65.80
2023-02-06T07:23:31.764Z,65.80
2023-02-06T07:26:03.850Z,68.80
2023-02-06T07:28:36.034Z,68.90
2023-02-06T07:31:09.144Z,76.00
2023-02-06T07:33:43.516Z,72.70
2023-02-06T07:36:16.673Z,73.30
2023-02-06T07:38:48.216Z,85.50
2023-02-06T07:41:20.130Z,89.20
2023-02-06T07:43:51.796Z,92.50
2023-02-06T07:46:23.374Z,73.30
2023-02-06T07:48:55.198Z,73.20
2023-02-06T07:51:26.779Z,62.70
2023-02-06T07:53:58.549Z,58.10
2023-02-06T07:56:31.846Z,56.70
2023-02-06T07:59:03.449Z,59.60
2023-02-06T08:01:35.237Z,60.40
2023-02-06T08:04:07.110Z,56.50
2023-02-06T08:06:41.627Z,56.40
2023-02-06T08:09:17.641Z,53.30
2023-02-06T08:11:49.266Z,48.50
2023-02-06T08:14:20.990Z,46.90
2023-02-06T08:16:53.947Z,46.00
2023-02-06T08:19:25.860Z,44.40
2023-02-06T08:21:57.385Z,44.20
2023-02-06T08:24:29.230Z,46.20
2023-02-06T08:27:00.921Z,49.40
2023-02-06T08:29:32.616Z,49.80
2023-02-06T08:32:04.199Z,50.30
2023-02-06T08:34:35.730Z,47.20
2023-02-06T08:37:07.434Z,44.90
2023-02-06T08:39:39.868Z,43.40
2023-02-06T08:42:11.514Z,40.00
2023-02-06T08:44:43.063Z,40.00
2023-02-06T08:47:14.823Z,44.20
2023-02-06T08:49:46.539Z,40.10
2023-02-06T08:52:18.154Z,40.40
2023-02-06T08:54:51.430Z,41.90
2023-02-06T08:57:23.034Z,35.00
2023-02-06T08:59:54.711Z,34.30
2023-02-06T09:02:26.275Z,36.30
2023-02-06T09:04:58.014Z,39.70
2023-02-06T09:07:30.013Z,38.60
2023-02-06T09:10:01.758Z,38.60
2023-02-06T09:12:33.351Z,38.20
2023-02-06T09:15:05.154Z,39.80
2023-02-06T09:17:36.804Z,39.10
2023-02-06T09:20:09.483Z,37.60
2023-02-06T09:22:42.137Z,37.00
2023-02-06T09:25:13.829Z,36.70
2023-02-06T09:27:47.050Z,40.10
2023-02-06T09:30:19.251Z,37.10
2023-02-06T09:32:50.821Z,37.50
2023-02-06T09:35:22.456Z,38.90
2023-02-06T09:37:54.215Z,36.30
2023-02-06T09:40:29.944Z,37.80
2023-02-06T09:43:02.912Z,39.80
2023-02-06T09:45:38.035Z,40.20
2023-02-06T09:48:22.163Z,39.70
2023-02-06T09:51:06.064Z,38.70
2023-02-06T09:53:47.491Z,39.40
2023-02-06T09:56:31.682Z,40.00
2023-02-06T09:59:09.561Z,37.40
2023-02-06T10:01:48.035Z,35.90
2023-02-06T10:04:41.936Z,35.80
2023-02-06T10:07:29.162Z,37.70
2023-02-06T10:10:05.966Z,40.50
2023-02-06T10:12:43.224Z,37.90
2023-02-06T10:15:21.154Z,34.50
2023-02-06T10:17:57.856Z,32.00
2023-02-06T10:20:36.571Z,35.80
2023-02-06T10:23:27.001Z,34.90
2023-02-06T10:26:12.653Z,32.70
2023-02-06T10:28:45.809Z,34.30
2023-02-06T10:31:30.393Z,35.50
2023-02-06T10:34:18.086Z,41.20
2023-02-06T10:37:03.030Z,39.60
2023-02-06T10:39:56.527Z,37.90
2023-02-06T10:42:40.700Z,37.20
2023-02-06T10:45:20.616Z,42.90
2023-02-06T10:47:57.799Z,40.50
2023-02-06T10:50:33.271Z,37.30
2023-02-06T10:53:08.644Z,38.20
2023-02-06T10:55:48.903Z,38.80
2023-02-06T10:58:27.289Z,38.00
2023-02-06T11:01:01.073Z,38.30
2023-02-06T11:03:37.524Z,38.80
2023-02-06T11:06:11.525Z,39.30
2023-02-06T11:08:46.119Z,40.00
2023-02-06T11:11:24.096Z,37.40
2023-02-06T11:14:00.507Z,37.10
2023-02-06T11:16:35.867Z,35.70
2023-02-06T11:19:19.395Z,36.00
2023-02-06T11:22:13.231Z,34.10
2023-02-06T11:25:02.622Z,33.90
2023-02-06T11:27:36.598Z,32.20
2023-02-06T11:30:24.222Z,28.90
2023-02-06T11:33:04.645Z,29.40
2023-02-06T11:35:39.901Z,31.80
2023-02-06T11:38:18.584Z,34.60
2023-02-06T11:41:00.918Z,31.80
2023-02-06T11:43:48.416Z,32.90
2023-02-06T11:46:25.662Z,33.90
2023-02-06T11:49:08.318Z,34.30
2023-02-06T11:51:55.074Z,30.90
2023-02-06T11:54:29.302Z,31.70
2023-02-06T11:57:08.312Z,32.70
2023-02-06T11:59:51.268Z,35.00
2023-02-06T12:02:31.856Z,33.70
2023-02-06T12:05:09.029Z,33.60
2023-02-06T12:07:47.921Z,34.70
2023-02-06T12:10:21.803Z,37.20
2023-02-06T12:12:57.408Z,36.50
2023-02-06T12:15:45.835Z,34.20
2023-02-06T12:18:22.432Z,35.70
2023-02-06T12:21:00.569Z,32.10
2023-02-06T12:23:38.343Z,31.90
2023-02-06T12:26:13.635Z,35.80
2023-02-06T12:28:52.310Z,33.50
2023-02-06T12:31:32.465Z,32.20
2023-02-06T12:34:12.791Z,33.60
2023-02-06T12:36:53.730Z,34.20
2023-02-06T12:39:26.746Z,33.90
2023-02-06T12:42:14.513Z,34.30
2023-02-06T12:44:54.004Z,35.10
2023-02-06T12:47:38.810Z,35.90
2023-02-06T12:50:18.711Z,34.30
2023-02-06T12:52:55.627Z,37.20
2023-02-06T12:55:30.715Z,34.00
2023-02-06T12:58:03.203Z,32.50
2023-02-06T13:00:51.344Z,37.80
2023-02-06T13:03:29.052Z,39.50
2023-02-06T13:06:13.652Z,38.40
2023-02-06T13:08:51.933Z,37.40
2023-02-06T13:11:35.601Z,36.70
2023-02-06T13:14:18.333Z,37.10
2023-02-06T13:16:55.252Z,39.30
2023-02-06T13:19:51.022Z,38.40
2023-02-06T13:22:41.812Z,37.90
2023-02-06T13:25:50.790Z,38.40
2023-02-06T13:29:01.482Z,35.60
2023-02-06T13:31:36.008Z,38.10
2023-02-06T13:34:15.567Z,37.10
2023-02-06T13:36:57.063Z,36.10
2023-02-06T13:39:32.615Z,36.00
2023-02-06T13:42:19.645Z,35.80
2023-02-06T13:44:52.278Z,33.00
2023-02-06T13:47:53.766Z,36.00
2023-02-06T13:50:47.915Z,37.00
2023-02-06T13:53:45.368Z,36.20
2023-02-06T13:56:40.037Z,35.30
2023-02-06T13:59:18.493Z,33.50
2023-02-06T14:01:50.423Z,33.10
2023-02-06T14:04:27.121Z,33.80
2023-02-06T14:07:11.875Z,34.10
2023-02-06T14:10:05.509Z,34.40
2023-02-06T14:12:53.372Z,32.40
2023-02-06T14:15:34.861Z,32.10
2023-02-06T14:18:17.927Z,29.60
2023-02-06T14:20:59.910Z,29.80
2023-02-06T14:23:49.108Z,30.40
2023-02-06T14:26:32.986Z,29.70
2023-02-06T14:29:15.126Z,34.40
2023-02-06T14:32:02.266Z,31.10
2023-02-06T14:34:47.884Z,29.40
2023-02-06T14:37:45.243Z,28.80
2023-02-06T14:40:21.886Z,28.50
2023-02-06T14:42:56.372Z,28.80
2023-02-06T14:45:42.170Z,28.70
2023-02-06T14:48:23.857Z,28.30
2023-02-06T14:50:58.815Z,29.60
2023-02-06T14:53:33.248Z,29.10
2023-02-06T14:56:17.233Z,28.80
2023-02-06T14:58:51.624Z,27.40
2023-02-06T15:01:28.662Z,28.30
2023-02-06T15:04:15.102Z,31.10
2023-02-06T15:06:53.110Z,30.80
2023-02-06T15:09:31.120Z,31.10
2023-02-06T15:12:05.497Z,32.40
2023-02-06T15:14:38.222Z,34.50
2023-02-06T15:17:20.252Z,36.70
2023-02-06T15:19:51.889Z,44.90
2023-02-06T15:22:27.341Z,47.50
2023-02-06T15:25:12.411Z,49.00
2023-02-06T15:27:44.128Z,50.00
2023-02-06T15:30:23.278Z,53.30
2023-02-06T15:32:56.450Z,56.20
2023-02-06T15:35:32.422Z,53.60
2023-02-06T15:38:11.628Z,54.90
2023-02-06T15:43:50.124Z,53.20
2023-02-06T15:46:21.708Z,51.50
2023-02-06T15:48:57.663Z,53.00
2023-02-06T15:51:30.622Z,53.60
2023-02-06T15:54:19.720Z,70.80
2023-02-06T15:56:55.423Z,60.00
2023-02-06T15:59:28.766Z,60.90
2023-02-06T16:02:04.088Z,64.90
2023-02-06T16:04:38.440Z,63.10
2023-02-06T16:07:17.810Z,70.30
2023-02-06T16:09:56.232Z,73.40
2023-02-06T16:12:28.366Z,70.80
2023-02-06T16:15:02.835Z,73.70
2023-02-06T16:17:38.281Z,73.90
2023-02-06T16:20:24.142Z,71.90
2023-02-06T16:22:57.590Z,70.60
2023-02-06T16:25:34.287Z,76.20
2023-02-06T16:28:20.459Z,85.70
2023-02-06T16:30:59.988Z,81.50
2023-02-06T16:33:39.146Z,91.80
2023-02-06T16:36:14.440Z,81.00
2023-02-06T16:38:54.229Z,84.10
2023-02-06T16:41:37.342Z,85.40
2023-02-06T16:44:14.884Z,86.40
2023-02-06T16:46:46.981Z,88.70
2023-02-06T16:49:21.003Z,91.70
2023-02-06T16:51:54.663Z,91.60
2023-02-06T16:54:29.224Z,91.80
2023-02-06T16:57:07.581Z,96.50
2023-02-06T16:59:39.120Z,95.50
2023-02-06T17:02:15.836Z,88.70
2023-02-06T17:04:48.195Z,82.10
2023-02-06T17:07:22.393Z,81.00
2023-02-06T17:09:57.687Z,79.80
2023-02-06T17:12:29.994Z,82.30
2023-02-06T17:15:01.746Z,82.30
2023-02-06T17:17:34.165Z,87.00
2023-02-06T17:20:06.866Z,86.30
2023-02-06T17:22:38.777Z,95.10
2023-02-06T17:25:13.426Z,95.30
2023-02-06T17:27:45.012Z,89.70
2023-02-06T17:30:22.342Z,99.90
2023-02-06T17:32:54.456Z,96.60
2023-02-06T17:35:26.522Z,89.30
2023-02-06T17:37:59.679Z,90.80
2023-02-06T17:40:34.682Z,81.20
2023-02-06T17:43:07.522Z,76.40
2023-02-06T17:45:41.443Z,76.70
2023-02-06T17:48:13.307Z,76.20
2023-02-06T17:50:46.099Z,76.40
2023-02-06T17:53:23.366Z,80.10
2023-02-06T17:55:56.706Z,88.70
2023-02-06T17:58:29.378Z,88.80
2023-02-06T18:01:00.999Z,83.40
2023-02-06T18:03:33.157Z,77.10
2023-02-06T18:06:05.500Z,73.80
2023-02-06T18:08:38.178Z,74.00
2023-02-06T18:11:15.564Z,74.20
2023-02-06T18:13:49.088Z,76.60
2023-02-06T18:16:25.025Z,73.60
2023-02-06T18:18:59.460Z,70.70
2023-02-06T18:21:34.320Z,73.00
2023-02-06T18:26:41.998Z,65.70
2023-02-06T18:29:15.899Z,73.70
2023-02-06T18:31:49.834Z,75.30
2023-02-06T18:34:23.172Z,70.60
2023-02-06T18:36:56.136Z,78.20
2023-02-06T18:39:29.604Z,74.60
2023-02-06T18:42:24.727Z,74.50
2023-02-06T18:44:58.585Z,73.60
2023-02-06T18:47:32.429Z,81.80
2023-02-06T18:50:08.825Z,88.50
2023-02-06T18:52:48.237Z,76.40
2023-02-06T18:55:22.720Z,73.60
2023-02-06T18:57:59.200Z,77.70
2023-02-06T19:00:34.999Z,87.40
2023-02-06T19:03:14.674Z,93.80
2023-02-06T19:05:49.455Z,96.20
2023-02-06T19:10:54.254Z,91.30
2023-02-06T19:13:27.963Z,92.90
2023-02-06T19:16:10.134Z,96.80
2023-02-06T19:18:45.037Z,89.30
2023-02-06T19:21:20.329Z,84.40
2023-02-06T19:24:00.337Z,79.10
2023-02-06T19:26:34.498Z,73.20
2023-02-06T19:29:09.163Z,66.60
2023-02-06T19:34:19.201Z,63.30
2023-02-06T19:36:57.502Z,74.30
2023-02-06T19:39:35.129Z,80.00
2023-02-06T19:42:10.424Z,71.20
2023-02-06T19:44:49.216Z,75.80
2023-02-06T19:47:25.981Z,69.50
2023-02-06T19:50:00.268Z,73.10
2023-02-06T19:52:35.889Z,85.20
2023-02-06T19:55:14.510Z,68.90
2023-02-06T19:57:47.701Z,69.20
2023-02-06T20:00:22.733Z,74.60
2023-02-06T20:02:56.122Z,76.60
2023-02-06T20:05:30.683Z,76.60
2023-02-06T20:08:07.264Z,78.50
2023-02-06T20:10:43.730Z,79.20
2023-02-06T20:13:18.443Z,74.30
2023-02-06T20:18:23.861Z,64.30
2023-02-06T20:20:58.867Z,70.90
2023-02-06T20:23:36.940Z,67.10
2023-02-06T20:26:10.171Z,63.90
2023-02-06T20:28:43.783Z,65.40
2023-02-06T20:31:17.857Z,62.30
2023-02-06T20:33:51.783Z,58.60
2023-02-06T20:36:29.978Z,63.70
2023-02-06T20:39:07.008Z,63.50
2023-02-06T20:41:39.918Z,63.10
2023-02-06T20:44:15.865Z,65.60
2023-02-06T20:46:49.781Z,63.50
2023-02-06T20:49:24.856Z,54.80
2023-02-06T20:51:58.628Z,54.40
2023-02-06T20:54:32.167Z,53.50
2023-02-06T20:57:10.398Z,55.70
2023-02-06T20:59:43.949Z,56.00
2023-02-06T21:02:18.075Z,57.70
2023-02-06T21:04:52.880Z,68.70
2023-02-06T21:07:25.842Z,63.50
2023-02-06T21:09:58.509Z,70.60
2023-02-06T21:12:30.950Z,69.40
2023-02-06T21:15:03.495Z,67.00
2023-02-06T21:17:35.202Z,71.70
2023-02-06T21:20:09.795Z,69.20
2023-02-06T21:22:42.033Z,67.50
2023-02-06T21:25:13.893Z,66.90
2023-02-06T21:27:47.116Z,70.30
2023-02-06T21:30:19.147Z,70.80
2023-02-06T21:32:50.663Z,69.00
2023-02-06T21:35:22.535Z,68.60
2023-02-06T21:37:54.207Z,73.00
2023-02-06T21:40:25.812Z,68.50
2023-02-06T21:42:57.401Z,68.10
2023-02-06T21:45:28.962Z,71.20
2023-02-06T21:48:00.597Z,66.60
2023-02-06T21:50:32.064Z,62.60
2023-02-06T21:53:03.582Z,71.90
2023-02-06T21:55:35.445Z,74.60
2023-02-06T21:58:07.078Z,81.50
2023-02-06T22:00:38.637Z,75.00
2023-02-06T22:03:10.926Z,81.90
2023-02-06T22:05:42.518Z,84.10
2023-02-06T22:08:14.037Z,84.00
2023-02-06T22:10:45.643Z,73.10
2023-02-06T22:13:17.169Z,69.80
2023-02-06T22:15:52.922Z,66.30
2023-02-06T22:18:24.363Z,66.00
2023-02-06T22:21:06.101Z,63.50
2023-02-06T22:23:38.160Z,67.10
2023-02-06T22:26:10.362Z,74.60
2023-02-06T22:28:42.077Z,71.60
2023-02-06T22:31:15.796Z,77.80
2023-02-06T22:33:47.462Z,72.90
2023-02-06T22:36:20.832Z,74.80
2023-02-06T22:38:56.950Z,83.20
2023-02-06T22:41:28.821Z,79.80
2023-02-06T22:44:00.639Z,88.20
2023-02-06T22:46:35.968Z,79.00
2023-02-06T22:49:09.171Z,86.80
2023-02-06T22:51:41.520Z,86.20
2023-02-06T22:54:13.565Z,84.60
2023-02-06T22:56:45.843Z,73.80
2023-02-06T22:59:19.579Z,70.30
2023-02-06T23:01:53.261Z,60.90
2023-02-06T23:04:26.179Z,56.70
2023-02-06T23:06:57.937Z,60.70
2023-02-06T23:09:32.908Z,49.50
2023-02-06T23:12:05.343Z,50.50
2023-02-06T23:14:36.906Z,52.40
2023-02-06T23:17:08.614Z,50.90
2023-02-06T23:19:40.174Z,50.80
2023-02-06T23:22:11.570Z,53.20
2023-02-06T23:24:43.085Z,49.70
2023-02-06T23:27:14.507Z,50.50
2023-02-06T23:29:46.128Z,46.50
2023-02-06T23:32:17.539Z,46.10
2023-02-06T23:34:49.202Z,50.70
2023-02-06T23:37:20.683Z,48.90
2023-02-06T23:39:52.286Z,48.10
2023-02-06T23:42:24.140Z,50.60
2023-02-06T23:44:56.262Z,46.30
2023-02-06T23:47:27.901Z,41.80
2023-02-06T23:49:59.365Z,47.40
2023-02-06T23:52:31.017Z,44.00
2023-02-06T23:55:02.730Z,46.30
2023-02-06T23:57:36.038Z,40.80
